Jump River, Wisconsin
Current Conditions -  °F | °C
As of 1:55 PM on Wednesday 17 Dec 2014 (Local Time) from KRCX Reporting Station
Scattered Clouds Scattered Clouds  
Wind Chill: 13°   Ceiling: Unl
Heat Index: 21°   Visibility: 10mi
Dew Point: 11°   Wind: 6mph
Humidity: 67%   Direction: 300°WNW
Pressure: 30.24"   Gusts: NA
Location:  45.35°N, 90.8°W
Report Text: KRCX 171955Z AUTO 30005KT 10SM SCT025 M06/M11 A3024 RMK AO2 T10621115
Loading
Personal Weather Stations






























Interactive Weather Map New forecast layout! Learn more

10-Day Weather Forecast

Advertisements
Track Severe Weather on mobile